Time;durP1;ratioP1;P1;durP2;ratioP2;P2;SDS_P1;SDS_P2;PMS_P1;PMS_P2;Temp;Humidity;BMP_temperature;BMP_pressure;BME280_temperature;BME280_humidity;BME280_pressure;Samples;Min_cycle;Max_cycle;Signal;HPM_P1;HPM_P2
2022/08/25 01:43:09;;;;;;;6.78;5.45;;;;;;;20.19;64.12;96824.56;3855715;23;20395;-78
2022/08/25 01:45:49;;;;;;;7.85;6.03;;;;;;;20.14;63.51;96826.06;4907118;29;20079;-79
2022/08/25 01:48:26;;;;;;;7.63;6.05;;;;;;;20.12;63.78;96820.22;4924479;29;20074;-79
2022/08/25 01:54:01;;;;;;;7.05;5.60;;;;;;;20.07;63.68;96817.47;4923691;29;20041;-80
2022/08/25 01:56:42;;;;;;;7.05;5.57;;;;;;;20.01;63.51;96813.13;4924210;29;20052;-80
2022/08/25 01:59:23;;;;;;;6.43;5.82;;;;;;;20.00;63.89;96811.50;4924116;29;20033;-80
2022/08/25 02:04:38;;;;;;;8.38;6.05;;;;;;;19.99;63.91;96815.19;5308486;23;20036;-81
2022/08/25 02:10:03;;;;;;;6.70;5.93;;;;;;;19.86;64.03;96812.84;4924206;29;20053;-79
2022/08/25 02:12:38;;;;;;;6.57;5.25;;;;;;;19.85;64.41;96814.66;4924015;29;20033;-80
2022/08/25 02:15:15;;;;;;;10.80;5.75;;;;;;;19.83;64.56;96810.63;4908611;29;20043;-80
2022/08/25 02:17:54;;;;;;;7.60;5.75;;;;;;;19.82;64.42;96811.69;4923915;29;20033;-79
2022/08/25 02:20:36;;;;;;;6.20;5.60;;;;;;;19.80;65.41;96805.81;4928654;29;20036;-80
2022/08/25 02:26:10;;;;;;;8.57;6.50;;;;;;;19.79;64.55;96804.19;4928929;29;20053;-80
2022/08/25 02:28:47;;;;;;;6.75;5.47;;;;;;;19.74;64.97;96802.25;4930342;29;20033;-79
2022/08/25 02:31:30;;;;;;;6.97;5.97;;;;;;;19.71;64.68;96792.97;4930195;29;20024;-80
2022/08/25 02:34:11;;;;;;;6.40;5.70;;;;;;;19.69;65.42;96795.03;4930337;29;20047;-80
2022/08/25 02:36:48;;;;;;;6.88;5.70;;;;;;;19.67;64.94;96791.78;4930117;29;20100;-79
2022/08/25 02:39:26;;;;;;;7.82;6.03;;;;;;;19.66;65.25;96792.84;4930252;29;20060;-80
2022/08/25 02:42:02;;;;;;;8.27;5.85;;;;;;;19.67;65.54;96786.50;4929986;29;20036;-80
2022/08/25 02:44:40;;;;;;;8.43;5.20;;;;;;;19.70;65.99;96790.53;4930238;29;20057;-80
2022/08/25 02:47:18;;;;;;;6.55;5.85;;;;;;;19.73;66.36;96790.88;4930181;29;20039;-79
2022/08/25 03:11:43;;;;;;;7.95;6.35;;;;;;;19.90;66.18;96784.84;4928388;29;20057;-80
2022/08/25 03:14:18;;;;;;;7.85;6.57;;;;;;;19.88;65.69;96781.63;4929465;29;20092;-79
2022/08/25 03:16:52;;;;;;;6.40;5.75;;;;;;;19.87;65.84;96782.66;4929942;29;20100;-80
2022/08/25 03:19:38;;;;;;;7.88;6.80;;;;;;;19.85;65.90;96780.25;4929864;29;20060;-79
2022/08/25 03:22:15;;;;;;;8.68;6.80;;;;;;;19.84;65.85;96775.19;4929928;29;20032;-79
2022/08/25 03:26:52;;;;;;;7.35;6.53;;;;;;;19.82;65.68;96774.63;4929786;29;20028;-79
2022/08/25 03:27:57;;;;;;;9.13;7.30;;;;;;;19.79;65.72;96777.72;4929790;29;20041;-79
2022/08/25 03:30:40;;;;;;;10.00;7.22;;;;;;;19.78;67.23;96774.28;4914110;29;20028;-79
2022/08/25 03:33:12;;;;;;;7.35;6.18;;;;;;;19.83;67.40;96768.28;4926889;29;20047;-80
2022/08/25 03:35:44;;;;;;;7.18;6.47;;;;;;;19.83;67.77;96773.59;4926662;29;20044;-79
2022/08/25 03:38:18;;;;;;;8.90;7.43;;;;;;;19.80;65.72;96774.84;4926514;29;20037;-80
2022/08/25 03:40:57;;;;;;;9.75;7.70;;;;;;;19.72;65.37;96768.13;4926396;29;20043;-80
2022/08/25 03:43:35;;;;;;;10.20;7.90;;;;;;;19.68;66.08;96774.88;4926543;29;20043;-79
2022/08/25 03:46:08;;;;;;;8.98;6.78;;;;;;;19.66;66.56;96779.59;4926336;29;20057;-79
2022/08/25 03:48:41;;;;;;;10.68;8.38;;;;;;;19.65;65.77;96777.19;4910361;29;20033;-79
2022/08/25 03:51:28;;;;;;;9.07;8.10;;;;;;;19.60;65.72;96780.53;4925097;29;20092;-79
2022/08/25 03:54:02;;;;;;;11.52;7.47;;;;;;;19.54;65.60;96776.97;4925119;29;20037;-79
2022/08/25 03:56:38;;;;;;;10.82;7.20;;;;;;;19.52;66.35;96772.97;4924661;29;20036;-79
2022/08/25 03:59:18;;;;;;;9.70;7.93;;;;;;;19.46;66.23;96773.91;4925099;29;20036;-78
2022/08/25 04:01:58;;;;;;;;;;;;;;;19.44;66.17;96773.31;4924973;29;20143;-80
2022/08/25 04:04:32;;;;;;;9.40;7.93;;;;;;;19.38;66.07;96775.06;4925037;29;19907;-80
2022/08/25 04:07:14;;;;;;;9.00;8.02;;;;;;;19.38;66.55;96776.91;4924691;29;20053;-80
2022/08/25 04:09:52;;;;;;;11.70;7.97;;;;;;;19.34;66.37;96776.56;5148576;23;20047;-79
2022/08/25 04:12:27;;;;;;;9.20;8.27;;;;;;;19.31;66.37;96782.34;4943941;29;20040;-79
2022/08/25 04:15:04;;;;;;;9.48;7.43;;;;;;;19.29;67.01;96795.00;4944606;29;20036;-79
2022/08/25 04:17:44;;;;;;;11.43;9.02;;;;;;;19.27;66.34;96794.41;4943168;29;20050;-79
2022/08/25 04:20:20;;;;;;;10.15;8.55;;;;;;;19.23;66.38;96804.66;4928036;29;20055;-79
2022/08/25 04:22:54;;;;;;;12.52;8.73;;;;;;;19.18;66.54;96787.88;4943519;29;20032;-79
2022/08/25 04:25:30;;;;;;;11.13;9.57;;;;;;;19.13;66.71;96796.47;4927538;29;20091;-79
2022/08/25 04:28:04;;;;;;;10.38;8.32;;;;;;;19.10;67.05;96789.03;4943322;29;20032;-79
2022/08/25 04:30:46;;;;;;;11.23;9.02;;;;;;;19.07;67.35;96787.66;4943316;29;20115;-79
2022/08/25 04:33:23;;;;;;;10.75;7.85;;;;;;;19.08;67.30;96793.75;4943341;29;20039;-79
2022/08/25 04:35:58;;;;;;;8.98;7.78;;;;;;;19.07;67.27;96797.44;4943266;29;20068;-80
2022/08/25 04:38:29;;;;;;;11.57;8.60;;;;;;;19.05;67.25;96787.06;4924527;23;20531;-76
2022/08/25 04:40:57;;;;;;;10.75;8.85;;;;;;;19.00;67.56;96786.16;4898671;29;20080;-76
2022/08/25 04:43:25;;;;;;;10.73;8.40;;;;;;;18.97;67.51;96786.63;4898022;29;20084;-76
2022/08/25 04:45:54;;;;;;;12.00;9.23;;;;;;;18.92;67.61;96787.31;4898810;29;20074;-78
2022/08/25 04:48:22;;;;;;;13.15;9.50;;;;;;;18.88;67.78;96789.59;4898906;29;20147;-76
2022/08/25 04:50:50;;;;;;;10.98;8.43;;;;;;;18.89;67.99;96785.94;4898552;29;20100;-78
2022/08/25 04:53:20;;;;;;;12.27;8.93;;;;;;;18.90;68.03;96792.03;4898686;29;20048;-78
2022/08/25 04:55:48;;;;;;;14.77;10.13;;;;;;;18.90;67.90;96784.88;4899101;29;20479;-78
2022/08/25 04:58:16;;;;;;;12.00;9.48;;;;;;;18.90;67.98;96786.72;4898944;29;20533;-78
2022/08/25 05:00:45;;;;;;;12.25;9.32;;;;;;;18.85;67.91;96784.78;4898178;29;20562;-78
2022/08/25 05:03:14;;;;;;;13.70;9.82;;;;;;;18.81;67.68;96794.19;4898816;29;20056;-78
2022/08/25 05:05:42;;;;;;;11.45;9.75;;;;;;;18.74;67.74;96782.91;4898899;29;20076;-78
2022/08/25 05:08:09;;;;;;;14.70;9.63;;;;;;;18.70;67.89;96792.34;4898634;29;20056;-78
2022/08/25 05:10:39;;;;;;;13.90;9.13;;;;;;;18.72;69.54;96790.25;4898584;29;20486;-78
2022/08/25 05:13:08;;;;;;;11.48;9.02;;;;;;;18.79;69.75;96790.97;4898764;29;20056;-78
2022/08/25 05:15:51;;;;;;;14.10;9.88;;;;;;;18.80;68.61;96782.00;4899153;29;20140;-82
2022/08/25 05:18:22;;;;;;;16.42;10.85;;;;;;;18.78;68.23;96786.72;4900940;29;20052;-81
2022/08/25 05:20:52;;;;;;;12.98;10.23;;;;;;;18.77;68.58;96781.66;4898326;29;20048;-80
2022/08/25 05:23:21;;;;;;;13.63;9.98;;;;;;;18.76;68.66;96787.94;4901868;29;20052;-80
2022/08/25 05:25:49;;;;;;;15.57;9.90;;;;;;;18.76;68.87;96796.72;4902093;29;20052;-80
2022/08/25 05:28:18;;;;;;;11.88;8.45;;;;;;;18.81;69.34;96794.19;4917213;29;20054;-81
2022/08/25 05:30:47;;;;;;;10.68;8.45;;;;;;;18.88;69.85;96797.53;4907671;29;20056;-80
2022/08/25 05:33:16;;;;;;;11.77;9.10;;;;;;;18.94;70.11;96795.81;4898184;29;20181;-80
2022/08/25 05:35:44;;;;;;;11.18;9.20;;;;;;;18.99;69.24;96795.13;4898160;29;20475;-80
2022/08/25 05:38:12;;;;;;;13.38;9.65;;;;;;;19.00;68.98;96791.44;4898500;29;20052;-80
2022/08/25 05:40:42;;;;;;;13.73;9.75;;;;;;;19.02;68.55;96784.06;4916593;29;20087;-80
2022/08/25 05:43:09;;;;;;;15.63;9.75;;;;;;;19.02;68.56;96784.91;4916882;29;20135;-80
2022/08/25 05:45:38;;;;;;;12.82;8.68;;;;;;;19.05;68.74;96779.16;4917115;29;20052;-80
2022/08/25 05:48:05;;;;;;;11.40;8.23;;;;;;;19.10;69.33;96778.44;4916952;29;20051;-80
2022/08/25 05:50:33;;;;;;;12.60;9.52;;;;;;;19.16;68.85;96779.38;4916925;29;20048;-79
2022/08/25 05:53:02;;;;;;;12.95;9.85;;;;;;;19.16;68.22;96788.09;4916711;29;20111;-81
2022/08/25 05:55:30;;;;;;;12.98;8.52;;;;;;;19.17;69.40;96776.47;4916201;29;20098;-80
2022/08/25 05:57:57;;;;;;;13.40;9.15;;;;;;;19.20;68.84;96778.69;4922111;29;20059;-81
2022/08/25 06:00:25;;;;;;;13.52;10.45;;;;;;;19.24;68.71;96776.34;4921903;29;20052;-81
2022/08/25 06:02:51;;;;;;;12.07;8.88;;;;;;;19.27;68.39;96771.41;4915793;29;20033;-80
2022/08/25 06:05:21;;;;;;;12.90;9.80;;;;;;;19.27;68.20;96771.41;4903096;29;20084;-80
2022/08/25 06:07:51;;;;;;;13.65;8.63;;;;;;;19.26;68.09;96769.81;4898747;29;20857;-81
2022/08/25 06:10:21;;;;;;;12.43;9.45;;;;;;;19.26;68.29;96775.09;4919658;29;20044;-80
2022/08/25 06:12:49;;;;;;;12.95;9.65;;;;;;;19.29;68.17;96774.63;4919823;29;20047;-80
2022/08/25 06:15:19;;;;;;;12.68;9.20;;;;;;;19.31;68.26;96772.56;4919799;29;20052;-79
2022/08/25 06:17:47;;;;;;;12.93;10.35;;;;;;;19.35;68.18;96775.56;4919136;29;20044;-81
2022/08/25 06:20:16;;;;;;;11.93;9.50;;;;;;;19.39;68.18;96773.22;4908409;29;20517;-80
2022/08/25 06:22:45;;;;;;;13.93;9.13;;;;;;;19.41;68.13;96766.66;4900607;29;20471;-80
2022/08/25 06:25:16;;;;;;;12.18;10.13;;;;;;;19.46;67.94;96768.59;4899517;29;20099;-80
2022/08/25 06:27:45;;;;;;;14.45;9.93;;;;;;;19.50;67.94;96762.63;4898653;29;20140;-81
2022/08/25 06:30:16;;;;;;;10.20;9.13;;;;;;;19.59;68.02;96764.88;4898105;29;20128;-81
2022/08/25 06:32:51;;;;;;;11.70;8.95;;;;;;;19.67;67.92;96760.03;4898527;29;20431;-80
2022/08/25 06:35:19;;;;;;;11.50;9.50;;;;;;;19.76;67.85;96769.22;4879344;29;20099;-78
2022/08/25 06:37:47;;;;;;;12.05;9.38;;;;;;;19.84;67.91;96764.63;4878487;29;20049;-78
2022/08/25 06:40:15;;;;;;;11.15;9.05;;;;;;;19.93;67.92;96764.00;4878414;29;20145;-79
2022/08/25 06:42:47;;;;;;;9.95;7.78;;;;;;;20.05;68.15;96766.59;4879890;29;20080;-80
2022/08/25 06:45:15;;;;;;;11.07;8.18;;;;;;;20.15;67.52;96760.66;4879605;29;20061;-80
2022/08/25 06:47:43;;;;;;;11.52;9.10;;;;;;;20.26;67.29;96764.28;4889286;29;20081;-81
2022/08/25 06:50:15;;;;;;;14.40;8.30;;;;;;;20.34;68.07;96766.56;4890074;29;20057;-81
2022/08/25 06:52:42;;;;;;;12.63;9.32;;;;;;;20.45;67.10;96767.53;4888628;29;20072;-82
2022/08/25 06:55:10;;;;;;;11.13;8.73;;;;;;;20.54;66.92;96763.44;4881846;29;20080;-82
2022/08/25 06:57:38;;;;;;;10.10;7.70;;;;;;;20.63;67.29;96762.00;4881373;29;20057;-82
2022/08/25 07:00:09;;;;;;;7.82;7.03;;;;;;;20.76;67.26;96758.22;4879271;29;20469;-79
2022/08/25 07:02:38;;;;;;;11.70;7.80;;;;;;;20.87;67.07;96751.22;4878493;29;20057;-78
2022/08/25 07:05:07;;;;;;;9.43;6.80;;;;;;;20.98;66.91;96759.06;4882918;29;20439;-82
2022/08/25 07:07:39;;;;;;;13.65;7.40;;;;;;;21.13;66.29;96753.16;4896690;29;20096;-82
2022/08/25 07:12:52;;;;;;;7.32;6.15;;;;;;;21.44;65.20;96761.53;5549076;23;20051;-79
2022/08/25 07:15:21;;;;;;;7.53;6.55;;;;;;;21.58;64.40;96756.66;4934537;29;20044;-80
2022/08/25 07:17:52;;;;;;;7.55;6.28;;;;;;;;;;4933097;29;20079;-79
2022/08/25 07:20:47;;;;;;;6.20;5.60;;;;;;;21.91;63.46;96749.56;4922660;29;20053;-79
2022/08/25 07:23:35;;;;;;;7.78;6.38;;;;;;;22.08;63.10;96747.63;4921530;29;20053;-80
2022/08/25 07:26:11;;;;;;;7.70;6.65;;;;;;;22.24;62.42;96751.28;4921563;29;20066;-79
2022/08/25 07:29:06;;;;;;;7.30;6.18;;;;;;;22.39;61.67;96751.41;4920440;29;20063;-78
2022/08/25 07:31:37;;;;;;;8.48;6.68;;;;;;;22.54;61.41;96757.88;4921578;29;20038;-80
2022/08/25 07:50:53;;;;;;;7.78;6.25;;;;;;;23.68;59.03;96754.78;6013966;23;20022;-80
2022/08/25 07:53:42;;;;;;;6.65;5.97;;;;;;;23.84;57.97;96749.28;4899875;29;20479;-80
2022/08/25 08:10:13;;;;;;;6.50;5.13;;;;;;;24.86;54.82;96761.06;5597920;23;20060;-80
2022/08/25 08:15:56;;;;;;;7.13;5.40;;;;;;;25.20;53.32;96757.84;4905613;29;20076;-79
2022/08/25 08:21:41;;;;;;;7.50;5.63;;;;;;;25.62;51.61;96756.59;4910685;29;20056;-79
2022/08/25 08:24:08;;;;;;;7.83;4.90;;;;;;;25.82;51.81;96750.34;4899642;29;20072;-81
2022/08/25 08:27:07;;;;;;;6.70;4.75;;;;;;;26.03;50.84;96756.41;4909650;29;20052;-80
2022/08/25 09:13:35;;;;;;;9.45;4.20;;;;;;;28.05;45.31;96733.47;4911692;29;20053;-79
2022/08/25 09:19:18;;;;;;;8.43;4.55;;;;;;;28.22;44.69;96731.06;4887941;29;20044;-78
2022/08/25 09:21:56;;;;;;;6.85;4.55;;;;;;;28.30;44.55;96721.56;4899373;29;20048;-78
2022/08/25 09:24:40;;;;;;;4.78;4.13;;;;;;;28.34;44.64;96727.94;4898379;29;20135;-78
2022/08/25 09:27:17;;;;;;;5.43;4.40;;;;;;;28.37;43.66;96716.63;4880683;29;20139;-78
2022/08/25 09:35:51;;;;;;;5.88;3.97;;;;;;;28.49;43.49;96700.91;5285600;23;20056;-81
2022/08/25 09:43:41;;;;;;;5.10;4.60;;;;;;;28.55;43.50;96697.00;5342867;23;20165;-79
2022/08/25 09:49:37;;;;;;;4.53;3.92;;;;;;;28.61;42.79;96691.56;4986003;23;20127;-80
2022/08/25 10:32:31;;;;;;;6.22;4.47;;;;;;;29.55;40.72;96640.00;4920698;29;20101;-83
2022/08/25 10:45:47;;;;;;;5.35;3.75;;;;;;;29.39;40.22;96638.78;6240848;22;1205357;-80
2022/08/25 10:48:42;;;;;;;3.92;3.55;;;;;;;29.45;40.17;96637.53;6194729;23;20017;-81
2022/08/25 10:51:30;;;;;;;5.43;3.63;;;;;;;29.53;39.74;96634.13;6193871;23;20021;-80
2022/08/25 10:54:06;;;;;;;5.13;3.97;;;;;;;29.60;39.18;96627.56;6194226;23;20063;-80
2022/08/25 10:56:39;;;;;;;4.78;3.92;;;;;;;29.66;39.99;96626.34;6173825;23;20389;-80
2022/08/25 10:59:21;;;;;;;5.20;4.50;;;;;;;29.64;40.00;96618.56;6163404;23;20051;-81
2022/08/25 11:02:10;;;;;;;4.65;4.18;;;;;;;29.68;40.08;96619.56;6163139;23;20057;-80
2022/08/25 11:04:43;;;;;;;5.40;4.20;;;;;;;29.69;39.51;96620.38;6164545;23;20022;-80
2022/08/25 11:07:23;;;;;;;5.65;4.20;;;;;;;29.74;39.43;96617.59;6164192;23;20021;-81
2022/08/25 11:09:53;;;;;;;4.15;3.75;;;;;;;29.73;37.91;96616.78;6164224;23;20033;-79
2022/08/25 11:12:29;;;;;;;7.43;3.15;;;;;;;29.65;38.38;96614.81;6164101;23;20092;-80
2022/08/25 11:15:01;;;;;;;6.38;3.90;;;;;;;29.70;38.42;96608.53;6164892;23;20393;-80
2022/08/25 11:17:41;;;;;;;3.83;3.50;;;;;;;29.76;38.65;96615.41;6164254;23;20059;-80
2022/08/25 11:20:16;;;;;;;4.25;3.85;;;;;;;29.87;38.23;96618.59;6164113;23;20032;-80
2022/08/25 11:22:51;;;;;;;5.95;3.85;;;;;;;29.98;37.84;96618.06;6163676;23;20026;-81
2022/08/25 11:25:24;;;;;;;3.72;3.40;;;;;;;30.07;37.74;96609.28;6164364;23;20049;-80
2022/08/25 11:27:58;;;;;;;5.50;4.18;;;;;;;30.12;38.22;96615.28;6164323;23;20018;-83
2022/08/25 11:30:27;;;;;;;7.63;4.18;;;;;;;30.17;37.34;96614.38;6163615;23;20029;-81
2022/08/25 11:32:57;;;;;;;5.70;4.03;;;;;;;30.15;37.88;96617.38;6163158;23;20065;-82
2022/08/25 11:35:28;;;;;;;4.47;4.07;;;;;;;30.13;37.91;96608.00;6163323;23;20109;-82
2022/08/25 11:38:14;;;;;;;5.55;3.78;;;;;;;30.13;38.12;96608.00;6163569;23;20270;-81
2022/08/25 11:40:54;;;;;;;7.47;3.75;;;;;;;30.10;37.50;96603.25;6162503;23;20084;-81
2022/08/25 11:43:53;;;;;;;6.28;3.63;;;;;;;30.06;37.30;96602.28;6163064;23;20025;-80
2022/08/25 11:46:32;;;;;;;8.23;4.07;;;;;;;29.99;38.06;96603.50;6173391;23;20027;-82
2022/08/25 11:49:25;;;;;;;4.90;4.28;;;;;;;29.99;37.73;96603.50;6186359;23;20028;-81
2022/08/25 11:51:53;;;;;;;3.90;3.47;;;;;;;30.06;37.51;96596.91;6186595;23;20025;-83
2022/08/25 11:54:24;;;;;;;5.57;3.75;;;;;;;30.12;37.60;96595.69;6186856;23;20403;-81
2022/08/25 11:57:01;;;;;;;4.50;3.75;;;;;;;30.22;37.94;96605.38;6186563;23;20025;-82
2022/08/25 12:00:01;;;;;;;3.60;3.30;;;;;;;30.30;37.98;96594.69;6186119;23;20104;-81
2022/08/25 12:02:33;;;;;;;7.50;4.28;;;;;;;30.39;37.56;96600.91;6186458;23;20048;-80
2022/08/25 12:05:03;;;;;;;7.38;4.28;;;;;;;30.48;37.32;96592.06;6186405;23;20092;-80
2022/08/25 12:11:04;;;;;;;4.15;3.72;;;;;;;30.46;36.76;96584.31;6186054;23;20071;-81
2022/08/25 12:13:43;;;;;;;4.10;3.03;;;;;;;30.40;35.54;96585.56;6186267;23;20017;-82
2022/08/25 12:16:41;;;;;;;9.60;3.72;;;;;;;30.35;36.11;96578.41;6184574;23;20059;-81
2022/08/25 12:19:25;;;;;;;3.72;3.38;;;;;;;30.34;35.40;96584.91;6184869;23;20032;-83
2022/08/25 12:21:58;;;;;;;4.00;3.22;;;;;;;30.33;35.90;96567.19;6185258;23;20027;-81
2022/08/25 12:24:50;;;;;;;4.28;3.63;;;;;;;30.39;36.33;96573.19;6185577;23;20021;-83
2022/08/25 12:27:27;;;;;;;3.85;3.50;;;;;;;30.43;36.90;96573.38;6184793;23;20076;-81
2022/08/25 12:30:03;;;;;;;6.65;3.92;;;;;;;30.43;36.28;96578.75;6185972;23;20361;-82
2022/08/25 12:33:04;;;;;;;6.13;3.90;;;;;;;30.38;36.42;96577.00;6187517;23;20017;-82
2022/08/25 12:35:37;;;;;;;5.65;3.42;;;;;;;30.36;35.80;96573.81;6167586;23;20017;-81
2022/08/25 12:38:12;;;;;;;6.20;3.83;;;;;;;30.29;35.71;96579.66;6193391;23;20021;-81
2022/08/25 12:40:58;;;;;;;9.40;3.83;;;;;;;30.29;36.34;96590.41;6190937;23;20025;-81
2022/08/25 12:43:29;;;;;;;5.03;3.42;;;;;;;30.35;35.99;96583.00;6189201;23;20044;-81
2022/08/25 12:46:33;;;;;;;15.45;4.63;;;;;;;30.37;39.06;96581.59;6188117;23;20025;-80
2022/08/25 12:49:02;;;;;;;4.07;3.67;;;;;;;30.38;36.83;96583.16;6192523;23;20029;-82
2022/08/25 12:51:49;;;;;;;4.78;3.50;;;;;;;30.39;36.46;96583.97;6191184;23;20024;-81
2022/08/25 12:54:24;;;;;;;3.47;3.15;;;;;;;30.32;36.05;96584.41;6190464;23;20044;-82
2022/08/25 12:56:56;;;;;;;3.60;3.30;;;;;;;30.32;36.12;96579.03;6190174;23;20029;-82
2022/08/25 12:59:33;;;;;;;3.90;3.40;;;;;;;30.27;35.69;96579.13;6191034;23;20039;-83
2022/08/25 13:02:29;;;;;;;3.90;3.42;;;;;;;30.26;36.26;96574.06;6188845;23;20029;-81
2022/08/25 13:05:16;;;;;;;4.70;3.15;;;;;;;30.26;35.74;96580.22;6187601;23;20032;-81
2022/08/25 13:07:59;;;;;;;4.95;3.25;;;;;;;30.26;35.38;96574.06;6188329;23;20032;-81
2022/08/25 13:10:42;;;;;;;3.75;2.63;;;;;;;30.22;35.08;96568.53;6187659;23;20020;-81
2022/08/25 13:13:19;;;;;;;5.65;3.50;;;;;;;30.20;35.85;96570.72;6187483;23;20066;-83
2022/08/25 13:15:58;;;;;;;3.92;2.88;;;;;;;30.22;36.11;96557.75;6185519;23;20480;-81
2022/08/25 13:18:28;;;;;;;3.63;3.33;;;;;;;30.21;35.72;96561.53;6185762;23;20021;-78
2022/08/25 13:21:05;;;;;;;4.97;3.20;;;;;;;30.18;36.45;96548.72;6186007;23;20024;-81
2022/08/25 13:23:36;;;;;;;3.88;3.47;;;;;;;30.15;36.51;96550.13;6186490;23;20052;-82
2022/08/25 13:26:06;;;;;;;4.93;3.70;;;;;;;30.13;36.66;96543.44;6186903;23;20028;-81
2022/08/25 13:28:39;;;;;;;4.25;3.85;;;;;;;30.15;36.78;96543.94;6185897;23;20256;-81
2022/08/25 13:31:09;;;;;;;;;;;;;;;30.21;36.98;96550.78;6187985;23;20021;-82
2022/08/25 13:33:37;;;;;;;4.13;3.60;;;;;;;30.24;36.33;96544.78;6186482;23;20260;-81
2022/08/25 13:38:51;;;;;;;4.10;3.75;;;;;;;30.26;36.58;96545.25;6185630;23;20021;-80
2022/08/25 13:41:24;;;;;;;4.85;3.45;;;;;;;30.24;36.34;96541.28;6184927;23;20400;-82
2022/08/25 13:43:57;;;;;;;4.07;3.53;;;;;;;30.20;35.75;96538.44;6185779;23;20021;-81
2022/08/25 13:46:30;;;;;;;5.05;3.50;;;;;;;30.13;35.60;96530.81;6185030;23;20028;-81
2022/08/25 13:49:04;;;;;;;4.22;3.55;;;;;;;30.07;35.45;96533.94;6185052;23;20028;-82
2022/08/25 13:51:31;;;;;;;5.15;3.17;;;;;;;29.99;35.58;96533.56;6185294;23;20099;-81
2022/08/25 13:54:01;;;;;;;3.53;3.05;;;;;;;29.92;36.29;96533.22;6185505;23;20091;-81
2022/08/25 13:56:33;;;;;;;3.45;3.10;;;;;;;29.86;36.24;96534.47;6185112;23;20358;-81
2022/08/25 13:59:20;;;;;;;4.20;3.70;;;;;;;29.81;36.89;96536.50;6184987;23;20484;-82
2022/08/25 14:01:49;;;;;;;4.60;3.80;;;;;;;29.76;37.46;96518.59;6185119;23;20024;-81
2022/08/25 14:04:24;;;;;;;6.40;4.20;;;;;;;29.70;38.00;96533.28;6185588;23;20025;-81
2022/08/25 14:07:24;;;;;;;7.80;3.33;;;;;;;29.66;38.08;96513.44;6184845;23;20025;-81
2022/08/25 14:09:55;;;;;;;6.25;3.72;;;;;;;29.63;38.03;96514.03;6181469;23;20021;-82
2022/08/25 14:12:31;;;;;;;5.28;4.05;;;;;;;29.53;37.29;96510.50;6184975;23;20025;-84
2022/08/25 14:15:04;;;;;;;3.97;3.60;;;;;;;29.46;37.20;96510.16;6185002;23;20401;-84
2022/08/25 14:17:31;;;;;;;;;;;;;;;29.45;37.87;96508.56;6186082;23;20056;-80
2022/08/25 14:20:16;;;;;;;4.00;3.58;;;;;;;29.41;37.41;96502.22;6184817;23;19916;-80
2022/08/25 14:22:44;;;;;;;4.13;3.75;;;;;;;29.38;38.08;96497.44;6186355;23;20028;-82
2022/08/25 14:25:12;;;;;;;5.70;4.35;;;;;;;29.36;38.26;96499.66;6187762;23;20032;-80
2022/08/25 14:27:43;;;;;;;6.53;4.25;;;;;;;29.31;38.73;96503.25;6187685;23;20032;-82
2022/08/25 14:30:34;;;;;;;4.97;3.88;;;;;;;29.24;38.64;96508.25;6188967;23;20032;-83
2022/08/25 14:33:03;;;;;;;7.07;3.88;;;;;;;29.21;38.86;96497.31;6197829;23;20036;-83
2022/08/25 14:35:33;;;;;;;4.13;3.80;;;;;;;29.19;38.83;96491.47;6191103;23;20021;-83
2022/08/25 14:38:07;;;;;;;6.10;3.70;;;;;;;29.17;38.75;96500.63;6185491;23;20100;-80
2022/08/25 14:40:34;;;;;;;4.10;3.70;;;;;;;29.17;37.71;96497.94;6185164;23;20032;-81
2022/08/25 14:43:04;;;;;;;7.72;4.30;;;;;;;29.14;37.89;96492.38;6185282;23;20031;-84
2022/08/25 14:45:37;;;;;;;6.53;3.60;;;;;;;29.11;37.97;96487.63;6185347;23;20021;-84
2022/08/25 14:48:08;;;;;;;4.07;3.67;;;;;;;29.10;37.98;96486.84;6184814;23;20108;-83
2022/08/25 14:50:37;;;;;;;6.07;4.22;;;;;;;29.10;37.94;96486.00;6184676;23;20028;-80
2022/08/25 14:53:09;;;;;;;5.05;3.33;;;;;;;29.10;37.92;96486.84;6185255;23;20028;-85
2022/08/25 14:55:37;;;;;;;4.93;3.95;;;;;;;29.10;37.23;96492.19;6185531;23;20064;-85
2022/08/25 14:58:08;;;;;;;4.07;3.20;;;;;;;29.10;37.87;96497.56;6185325;23;20025;-85
2022/08/25 15:00:39;;;;;;;5.22;4.07;;;;;;;29.10;37.91;96486.00;6185041;23;20508;-84
2022/08/25 15:03:07;;;;;;;3.50;3.20;;;;;;;29.10;38.00;96486.84;6185266;23;20357;-85
2022/08/25 15:05:35;;;;;;;3.40;3.10;;;;;;;29.08;36.84;96478.25;6185128;23;20044;-83
2022/08/25 15:10:49;;;;;;;6.97;4.07;;;;;;;29.02;38.20;96479.47;6185312;23;20025;-85
2022/08/25 15:13:18;;;;;;;5.40;4.00;;;;;;;28.99;38.12;96474.69;6186294;23;20021;-85
2022/08/25 15:15:47;;;;;;;4.78;4.22;;;;;;;28.96;38.32;96480.66;6188156;23;20624;-81
2022/08/25 15:18:20;;;;;;;5.10;4.20;;;;;;;28.91;38.73;96483.47;6187030;23;20467;-80
2022/08/25 15:20:47;;;;;;;4.72;4.32;;;;;;;28.87;39.34;96474.44;6194811;23;20025;-82
2022/08/25 15:23:17;;;;;;;6.28;4.20;;;;;;;28.84;39.53;96477.72;6193690;23;20025;-81
2022/08/25 15:25:46;;;;;;;4.90;3.97;;;;;;;28.81;39.86;96467.59;6192189;23;20353;-81
2022/08/25 15:28:15;;;;;;;5.35;4.25;;;;;;;28.77;39.78;96470.06;6191530;23;20032;-84
2022/08/25 15:30:45;;;;;;;3.83;3.53;;;;;;;28.73;39.76;96469.91;6190064;23;20017;-81
2022/08/25 15:33:13;;;;;;;6.65;3.60;;;;;;;28.68;39.85;96470.00;6190287;23;20021;-82
2022/08/25 15:35:41;;;;;;;4.57;3.88;;;;;;;28.65;39.82;96475.19;6189743;23;20413;-80
2022/08/25 15:38:09;;;;;;;3.97;3.60;;;;;;;28.61;40.01;96472.28;6189546;23;20401;-81
2022/08/25 15:40:38;;;;;;;4.05;3.65;;;;;;;28.60;39.99;96472.59;6188515;23;20021;-82
2022/08/25 15:43:06;;;;;;;4.32;3.78;;;;;;;28.57;40.33;96459.78;6188275;23;20076;-81
2022/08/25 15:45:34;;;;;;;4.97;3.60;;;;;;;28.55;39.99;96465.44;6190187;23;20464;-82
2022/08/25 15:48:04;;;;;;;6.97;3.92;;;;;;;28.52;39.82;96466.06;6190192;23;20021;-81
2022/08/25 15:50:36;;;;;;;7.40;3.70;;;;;;;28.50;40.26;96457.50;6187504;23;20480;-80
2022/08/25 15:53:05;;;;;;;4.63;4.22;;;;;;;28.46;39.92;96459.97;6189079;23;20021;-81
2022/08/25 15:55:37;;;;;;;;;;;;;;;28.46;40.41;96461.84;6190392;23;20044;-81
2022/08/25 15:58:06;;;;;;;5.03;4.30;;;;;;;28.42;39.76;96452.81;6189012;23;19991;-81
2022/08/25 16:00:35;;;;;;;4.72;3.95;;;;;;;28.39;40.06;96456.13;6186641;23;20017;-80
2022/08/25 16:03:05;;;;;;;6.28;4.40;;;;;;;28.38;40.65;96449.16;6187064;23;20029;-81
2022/08/25 16:05:35;;;;;;;5.95;4.32;;;;;;;28.37;41.42;96447.56;6187349;23;20051;-82
2022/08/25 16:08:04;;;;;;;4.55;3.85;;;;;;;28.34;40.79;96444.38;6187507;23;20032;-81
2022/08/25 16:10:34;;;;;;;7.00;4.25;;;;;;;28.32;40.88;96446.56;6187713;23;20185;-80
2022/08/25 16:13:03;;;;;;;4.80;3.95;;;;;;;28.32;40.57;96451.94;6187775;23;20469;-80
2022/08/25 16:15:32;;;;;;;4.65;3.67;;;;;;;28.30;40.78;96439.94;6187850;23;20348;-81
2022/08/25 16:18:01;;;;;;;5.50;4.05;;;;;;;28.29;40.89;96446.38;6193681;23;20386;-81
2022/08/25 16:20:35;;;;;;;5.70;3.78;;;;;;;28.27;39.99;96444.00;6188175;23;20021;-81
2022/08/25 16:23:03;;;;;;;4.82;4.30;;;;;;;28.25;40.10;96435.47;6189016;23;20017;-81
2022/08/25 16:25:31;;;;;;;5.72;4.93;;;;;;;28.23;40.52;96437.66;6186823;23;20017;-81
2022/08/25 16:28:03;;;;;;;5.25;4.38;;;;;;;28.21;40.82;96433.69;6186909;23;20483;-81
2022/08/25 16:30:30;;;;;;;4.47;3.55;;;;;;;28.18;40.91;96440.41;6186362;23;20039;-81
2022/08/25 16:32:58;;;;;;;5.78;3.75;;;;;;;28.17;41.15;96441.53;6187333;23;20492;-81
2022/08/25 16:35:28;;;;;;;7.18;4.50;;;;;;;28.15;41.22;96430.28;6187834;23;20021;-83
2022/08/25 16:37:57;;;;;;;5.78;4.32;;;;;;;28.13;40.81;96432.47;6188198;23;20025;-81
2022/08/25 16:40:27;;;;;;;6.03;3.85;;;;;;;28.12;41.64;96430.91;6187037;23;20039;-82
2022/08/25 16:42:55;;;;;;;4.43;4.03;;;;;;;28.11;41.26;96432.78;6186768;23;20025;-82
2022/08/25 16:45:23;;;;;;;5.65;4.30;;;;;;;28.09;40.80;96431.47;6185850;23;20059;-85
2022/08/25 22:47:05;;;;;;;11.32;7.35;;;;;;;22.66;59.60;96484.66;6244147;22;20074;-78
2022/08/25 22:49:34;;;;;;;14.98;7.63;;;;;;;22.63;59.91;96487.84;6245727;23;20020;-78
2022/08/25 22:52:02;;;;;;;11.23;7.75;;;;;;;22.61;59.88;96487.31;6246799;23;20108;-77
2022/08/25 22:54:29;;;;;;;12.68;9.32;;;;;;;22.60;59.92;96483.81;6246464;23;20561;-77
2022/08/25 22:56:59;;;;;;;20.35;8.43;;;;;;;22.59;59.99;96481.44;6247472;22;20042;-78
2022/08/25 22:59:33;;;;;;;16.80;7.97;;;;;;;22.58;59.74;96483.28;6246651;23;20051;-78